createdAt,value
2019-05-03T00:00:27.043Z,65.37
2019-05-03T00:01:27.029Z,65.37
2019-05-03T00:02:27.025Z,65.78
2019-05-03T00:03:27.007Z,65.71
2019-05-03T00:04:27.008Z,66.63
2019-05-03T00:05:26.987Z,65.27
2019-05-03T00:06:26.982Z,66.33
2019-05-03T00:07:26.962Z,65.51
2019-05-03T00:08:26.950Z,65.81
2019-05-03T00:09:26.941Z,66.12
2019-05-03T00:10:26.935Z,65.61
2019-05-03T00:11:26.943Z,65.92
2019-05-03T00:12:26.913Z,65.51
2019-05-03T00:13:26.896Z,65.78
2019-05-03T00:14:26.887Z,66.22
2019-05-03T00:15:26.884Z,66.12
2019-05-03T00:16:26.862Z,65.71
2019-05-03T00:17:26.868Z,66.43
2019-05-03T00:18:26.844Z,66.33
2019-05-03T00:19:26.851Z,66.43
2019-05-03T00:20:26.834Z,65.92
2019-05-03T00:21:26.810Z,66.36
2019-05-03T00:22:26.801Z,65.30
2019-05-03T00:23:26.804Z,66.33
2019-05-03T00:24:26.785Z,65.74
2019-05-03T00:25:26.766Z,66.12
2019-05-03T00:26:26.763Z,66.84
2019-05-03T00:27:26.745Z,65.84
2019-05-03T00:28:26.736Z,66.02
2019-05-03T00:29:26.712Z,65.44
2019-05-03T00:30:26.709Z,66.12
2019-05-03T00:31:26.704Z,65.81
2019-05-03T00:32:26.689Z,66.02
2019-05-03T00:33:26.674Z,65.00
2019-05-03T00:34:26.669Z,65.20
2019-05-03T00:35:26.651Z,63.97
2019-05-03T00:36:26.640Z,65.30
2019-05-03T00:37:26.629Z,64.28
2019-05-03T00:38:26.620Z,64.17
2019-05-03T00:39:26.625Z,62.87
2019-05-03T00:40:26.593Z,63.18
2019-05-03T00:41:26.586Z,61.74
2019-05-03T00:42:26.577Z,62.46
2019-05-03T00:43:26.568Z,61.74
2019-05-03T00:44:26.548Z,60.41
2019-05-03T00:45:26.551Z,60.21
2019-05-03T00:46:26.543Z,59.80
2019-05-03T00:47:26.575Z,59.92
2019-05-03T00:48:26.509Z,59.92
2019-05-03T00:49:26.499Z,59.62
2019-05-03T00:50:26.485Z,58.28
2019-05-03T00:51:26.484Z,58.80
2019-05-03T00:52:26.456Z,58.18
2019-05-03T00:53:26.448Z,58.07
2019-05-03T00:54:26.442Z,57.49
2019-05-03T00:55:26.425Z,57.70
2019-05-03T00:56:26.418Z,57.98
2019-05-03T00:57:26.408Z,57.70
2019-05-03T00:58:26.403Z,57.18
2019-05-03T00:59:26.377Z,57.59
2019-05-03T01:00:26.382Z,57.70
2019-05-03T01:01:26.356Z,57.79
2019-05-03T01:02:26.477Z,57.59
2019-05-03T01:03:26.333Z,58.69
2019-05-03T01:04:26.324Z,57.87
2019-05-03T01:05:26.316Z,56.85
2019-05-03T01:06:26.312Z,56.95
2019-05-03T01:07:26.298Z,56.85
2019-05-03T01:08:26.283Z,57.67
2019-05-03T01:09:26.266Z,57.87
2019-05-03T01:10:26.267Z,56.64
2019-05-03T01:11:26.260Z,57.15
2019-05-03T01:12:26.234Z,56.67
2019-05-03T01:13:26.231Z,56.46
2019-05-03T01:14:26.214Z,56.15
2019-05-03T01:15:26.197Z,57.70
2019-05-03T01:16:26.194Z,56.38
2019-05-03T01:17:26.184Z,56.79
2019-05-03T01:18:26.167Z,57.82
2019-05-03T01:19:26.171Z,57.62
2019-05-03T01:20:26.146Z,57.51
2019-05-03T01:21:26.142Z,57.93
2019-05-03T01:22:26.130Z,57.93
2019-05-03T01:23:26.125Z,57.31
2019-05-03T01:24:26.110Z,57.10
2019-05-03T01:25:32.241Z,57.93
2019-05-03T01:26:27.079Z,57.51
2019-05-03T01:27:26.065Z,57.31
2019-05-03T01:28:26.062Z,57.00
2019-05-03T01:29:26.062Z,56.56
2019-05-03T01:30:26.036Z,56.15
2019-05-03T01:31:26.025Z,54.41
2019-05-03T01:32:26.017Z,53.59
2019-05-03T01:33:26.007Z,52.76
2019-05-03T01:34:25.997Z,51.87
2019-05-03T01:35:25.975Z,51.87
2019-05-03T01:36:25.966Z,52.07
2019-05-03T01:37:25.981Z,51.66
2019-05-03T01:38:25.951Z,51.45
2019-05-03T01:39:25.937Z,52.09
2019-05-03T01:40:25.935Z,52.51
2019-05-03T01:41:25.913Z,52.07
2019-05-03T01:42:25.903Z,51.99
2019-05-03T01:43:25.887Z,52.89
2019-05-03T01:44:25.881Z,52.28
2019-05-03T01:45:25.872Z,52.38
2019-05-03T01:46:25.861Z,51.87
2019-05-03T01:47:25.855Z,52.79
2019-05-03T01:48:25.827Z,52.79
2019-05-03T01:49:25.826Z,52.59
2019-05-03T01:50:25.812Z,53.30
2019-05-03T01:51:25.823Z,52.79
2019-05-03T01:52:25.792Z,52.40
2019-05-03T01:53:25.780Z,51.79
2019-05-03T01:54:25.776Z,52.84
2019-05-03T01:55:25.751Z,52.94
2019-05-03T01:56:25.754Z,52.94
2019-05-03T01:57:25.735Z,53.23
2019-05-03T01:58:25.730Z,53.05
2019-05-03T01:59:25.714Z,53.23
2019-05-03T02:00:25.716Z,52.84
2019-05-03T02:01:25.689Z,53.43
2019-05-03T02:02:25.686Z,52.92
2019-05-03T02:03:25.679Z,53.53
2019-05-03T02:04:25.663Z,53.23
2019-05-03T02:05:25.659Z,53.56
2019-05-03T02:06:25.631Z,52.30
2019-05-03T02:07:25.639Z,53.87
2019-05-03T02:08:25.609Z,53.85
2019-05-03T02:09:25.640Z,54.28
2019-05-03T02:10:25.596Z,53.74
2019-05-03T02:11:25.586Z,53.64
2019-05-03T02:12:25.570Z,53.74
2019-05-03T02:13:25.579Z,53.23
2019-05-03T02:14:25.546Z,51.99
2019-05-03T02:15:25.534Z,52.20
2019-05-03T02:16:25.546Z,52.30
2019-05-03T02:17:25.517Z,52.22
2019-05-03T02:18:25.505Z,52.64
2019-05-03T02:19:25.491Z,52.33
2019-05-03T02:20:25.486Z,51.81
2019-05-03T02:21:25.473Z,53.45
2019-05-03T02:22:25.458Z,52.12
2019-05-03T02:23:25.443Z,53.12
2019-05-03T02:24:25.449Z,53.25
2019-05-03T02:25:25.425Z,53.23
2019-05-03T02:26:25.413Z,52.84
2019-05-03T02:27:25.401Z,53.87
2019-05-03T02:28:25.401Z,52.43
2019-05-03T02:29:25.379Z,53.56
2019-05-03T02:30:25.388Z,53.45
2019-05-03T02:31:25.362Z,53.66
2019-05-03T02:32:25.348Z,52.84
2019-05-03T02:33:25.346Z,53.56
2019-05-03T02:34:25.332Z,53.66
2019-05-03T02:35:25.326Z,54.00
2019-05-03T02:36:25.334Z,54.00
2019-05-03T02:37:25.294Z,54.10
2019-05-03T02:38:25.286Z,54.61
2019-05-03T02:39:25.269Z,54.82
2019-05-03T02:40:25.257Z,54.82
2019-05-03T02:41:25.248Z,55.41
2019-05-03T02:42:26.451Z,54.59
2019-05-03T02:43:26.210Z,54.59
2019-05-03T02:44:26.627Z,54.59
2019-05-03T02:45:25.942Z,55.30
2019-05-03T02:46:25.496Z,55.30
2019-05-03T02:47:26.560Z,54.90
2019-05-03T02:48:25.651Z,55.51
2019-05-03T02:49:25.785Z,55.93
2019-05-03T02:50:26.013Z,56.15
2019-05-03T02:51:25.975Z,56.36
2019-05-03T02:52:25.640Z,55.98
2019-05-03T02:53:25.838Z,56.05
2019-05-03T02:54:26.976Z,56.57
2019-05-03T02:55:26.048Z,56.77
2019-05-03T02:56:26.044Z,56.54
2019-05-03T02:57:25.852Z,56.74
2019-05-03T02:58:25.443Z,56.44
2019-05-03T02:59:26.349Z,55.93
2019-05-03T03:00:25.477Z,56.44
2019-05-03T03:01:26.356Z,56.54
2019-05-03T03:02:26.365Z,56.67
2019-05-03T03:03:25.586Z,56.36
2019-05-03T03:04:25.967Z,57.29
2019-05-03T03:05:25.399Z,57.08
2019-05-03T03:06:26.802Z,56.67
2019-05-03T03:07:25.854Z,57.46
2019-05-03T03:08:25.242Z,56.77
2019-05-03T03:09:26.043Z,56.57
2019-05-03T03:10:26.461Z,56.95
2019-05-03T03:11:26.141Z,56.98
2019-05-03T03:12:25.802Z,57.39
2019-05-03T03:13:25.441Z,56.67
2019-05-03T03:14:25.631Z,57.18
2019-05-03T03:15:25.652Z,56.36
2019-05-03T03:16:25.246Z,57.29
2019-05-03T03:17:25.457Z,57.08
2019-05-03T03:18:25.539Z,56.57
2019-05-03T03:19:26.169Z,57.29
2019-05-03T03:20:25.347Z,57.59
2019-05-03T03:21:26.058Z,56.67
2019-05-03T03:22:25.946Z,56.67
2019-05-03T03:23:26.239Z,56.67
2019-05-03T03:24:25.872Z,56.36
2019-05-03T03:25:25.880Z,57.08
2019-05-03T03:26:34.437Z,57.80
2019-05-03T03:27:25.981Z,57.93
2019-05-03T03:28:25.335Z,57.59
2019-05-03T03:29:25.478Z,57.73
2019-05-03T03:30:29.266Z,57.73
2019-05-03T03:31:28.144Z,58.34
2019-05-03T03:32:29.118Z,58.24
2019-05-03T03:33:28.085Z,58.34
2019-05-03T03:34:28.006Z,58.98
2019-05-03T03:35:29.225Z,59.50
2019-05-03T03:36:43.616Z,59.37
2019-05-03T03:37:26.106Z,59.27
2019-05-03T03:38:26.063Z,59.09
2019-05-03T03:39:26.119Z,59.50
2019-05-03T03:40:25.447Z,59.61
2019-05-03T03:41:25.010Z,60.02
2019-05-03T03:42:25.163Z,60.02
2019-05-03T03:43:25.945Z,60.02
2019-05-03T03:44:25.734Z,60.12
2019-05-03T03:45:25.381Z,59.81
2019-05-03T03:46:25.120Z,60.12
2019-05-03T03:47:27.314Z,60.33
2019-05-03T03:48:26.577Z,59.50
2019-05-03T03:49:26.191Z,60.56
2019-05-03T03:50:25.880Z,60.15
2019-05-03T03:51:26.344Z,60.66
2019-05-03T03:52:25.521Z,59.94
2019-05-03T03:53:26.360Z,60.56
2019-05-03T03:54:26.009Z,61.87
2019-05-03T03:55:26.453Z,61.25
2019-05-03T03:56:25.555Z,59.81
2019-05-03T03:57:25.309Z,59.61
2019-05-03T03:58:27.079Z,59.50
2019-05-03T03:59:26.692Z,59.40
2019-05-03T04:00:25.837Z,59.61
2019-05-03T04:01:26.626Z,59.91
2019-05-03T04:02:26.545Z,59.91
2019-05-03T04:03:26.012Z,59.70
2019-05-03T04:04:26.183Z,59.61
2019-05-03T04:05:25.374Z,60.15
2019-05-03T04:06:26.670Z,59.61
2019-05-03T04:07:26.240Z,60.15
2019-05-03T04:08:25.211Z,60.97
2019-05-03T04:09:25.572Z,60.35
2019-05-03T04:10:26.114Z,60.66
2019-05-03T04:11:25.958Z,60.25
2019-05-03T04:12:26.492Z,60.77
2019-05-03T04:13:25.501Z,60.56
2019-05-03T04:14:25.402Z,61.07
2019-05-03T04:15:26.112Z,60.77
2019-05-03T04:16:25.922Z,60.46
2019-05-03T04:17:26.108Z,60.35
2019-05-03T04:18:25.544Z,61.69
2019-05-03T04:19:25.130Z,61.07
2019-05-03T04:20:25.633Z,60.56
2019-05-03T04:21:25.492Z,61.07
2019-05-03T04:22:25.366Z,60.97
2019-05-03T04:23:26.323Z,60.63
2019-05-03T04:24:25.889Z,60.74
2019-05-03T04:25:26.225Z,60.94
2019-05-03T04:26:29.469Z,60.84
2019-05-03T04:27:27.516Z,60.63
2019-05-03T04:28:25.551Z,60.53
2019-05-03T04:29:25.397Z,60.22
2019-05-03T04:30:25.694Z,60.33
2019-05-03T04:31:26.170Z,60.33
2019-05-03T04:32:28.119Z,60.43
2019-05-03T04:33:26.626Z,60.33
2019-05-03T04:34:26.145Z,60.02
2019-05-03T04:35:26.521Z,60.22
2019-05-03T04:36:26.293Z,60.97
2019-05-03T04:37:26.289Z,61.59
2019-05-03T04:38:25.684Z,61.35
2019-05-03T04:39:25.637Z,61.87
2019-05-03T04:40:25.997Z,60.94
2019-05-03T04:41:26.765Z,60.84
2019-05-03T04:42:25.394Z,61.33
2019-05-03T04:43:26.508Z,60.81
2019-05-03T04:44:26.019Z,60.40
2019-05-03T04:45:25.559Z,60.40
2019-05-03T04:46:25.891Z,61.35
2019-05-03T04:47:26.207Z,60.53
2019-05-03T04:48:25.319Z,60.63
2019-05-03T04:49:26.195Z,60.84
2019-05-03T04:50:25.524Z,61.66
2019-05-03T04:51:25.954Z,61.05
2019-05-03T04:52:25.930Z,61.35
2019-05-03T04:53:25.883Z,61.35
2019-05-03T04:54:25.210Z,60.74
2019-05-03T04:55:26.309Z,60.50
2019-05-03T04:56:25.906Z,60.84
2019-05-03T04:57:36.646Z,62.07
2019-05-03T04:58:25.851Z,61.12
2019-05-03T04:59:25.510Z,60.94
2019-05-03T05:00:25.735Z,61.25
2019-05-03T05:01:25.949Z,61.63
2019-05-03T05:02:26.292Z,61.02
2019-05-03T05:03:23.652Z,60.74
2019-05-03T05:04:25.393Z,61.98
2019-05-03T05:05:26.164Z,61.56
2019-05-03T05:06:25.807Z,61.77
2019-05-03T05:07:26.043Z,61.25
2019-05-03T05:08:25.315Z,60.53
2019-05-03T05:09:25.804Z,60.84
2019-05-03T05:10:26.050Z,61.46
2019-05-03T05:11:26.094Z,61.25
2019-05-03T05:12:25.167Z,61.49
2019-05-03T05:13:25.023Z,62.00
2019-05-03T05:14:25.678Z,62.41
2019-05-03T05:15:26.023Z,62.21
2019-05-03T05:16:25.167Z,62.93
2019-05-03T05:17:26.094Z,62.82
2019-05-03T05:18:26.166Z,62.93
2019-05-03T05:19:25.316Z,62.31
2019-05-03T05:20:24.806Z,63.13
2019-05-03T05:21:25.244Z,62.62
2019-05-03T05:22:24.699Z,62.18
2019-05-03T05:23:25.124Z,62.34
2019-05-03T05:24:25.398Z,62.72
2019-05-03T05:25:25.104Z,62.62
2019-05-03T05:26:24.851Z,62.82
2019-05-03T05:27:25.413Z,63.21
2019-05-03T05:28:25.005Z,61.80
2019-05-03T05:29:25.245Z,62.10
2019-05-03T05:30:25.138Z,62.07
2019-05-03T05:31:25.324Z,61.87
2019-05-03T05:32:24.739Z,61.87
2019-05-03T05:33:25.228Z,61.77
2019-05-03T05:34:24.589Z,61.77
2019-05-03T05:35:24.822Z,62.10
2019-05-03T05:36:24.388Z,61.80
2019-05-03T05:37:24.984Z,62.52
2019-05-03T05:38:25.321Z,62.41
2019-05-03T05:39:24.456Z,63.00
2019-05-03T05:40:24.567Z,63.31
2019-05-03T05:41:24.480Z,62.07
2019-05-03T05:42:24.946Z,61.77
2019-05-03T05:43:25.353Z,61.46
2019-05-03T05:44:24.745Z,61.46
2019-05-03T05:45:24.558Z,61.46
2019-05-03T05:46:24.804Z,61.77
2019-05-03T05:47:25.306Z,60.94
2019-05-03T05:48:24.595Z,61.46
2019-05-03T05:49:23.141Z,61.56
2019-05-03T05:50:25.236Z,61.66
2019-05-03T05:51:24.858Z,61.98
2019-05-03T05:52:24.540Z,61.46
2019-05-03T05:53:23.096Z,61.35
2019-05-03T05:54:24.606Z,61.25
2019-05-03T05:55:25.153Z,61.46
2019-05-03T05:56:24.962Z,61.56
2019-05-03T05:57:23.053Z,61.35
2019-05-03T05:58:25.384Z,60.84
2019-05-03T05:59:24.770Z,60.63
2019-05-03T06:00:23.020Z,61.77
2019-05-03T06:01:24.870Z,61.43
2019-05-03T06:02:23.000Z,61.94
2019-05-03T06:03:22.985Z,61.02
2019-05-03T06:04:24.600Z,61.63
2019-05-03T06:05:25.040Z,60.50
2019-05-03T06:06:24.392Z,61.81
2019-05-03T06:07:24.723Z,60.37
2019-05-03T06:08:24.982Z,61.30
2019-05-03T06:09:22.927Z,59.65
2019-05-03T06:10:24.734Z,59.55
2019-05-03T06:11:22.898Z,59.96
2019-05-03T06:12:22.910Z,59.45
2019-05-03T06:13:22.870Z,58.31
2019-05-03T06:14:24.516Z,59.34
2019-05-03T06:15:25.002Z,58.73
2019-05-03T06:16:24.542Z,58.83
2019-05-03T06:17:24.517Z,59.24
2019-05-03T06:18:24.914Z,59.86
2019-05-03T06:19:22.805Z,59.55
2019-05-03T06:20:24.534Z,59.55
2019-05-03T06:21:24.954Z,59.52
2019-05-03T06:22:22.769Z,59.22
2019-05-03T06:23:24.673Z,58.57
2019-05-03T06:24:24.788Z,58.47
2019-05-03T06:25:26.187Z,58.70
2019-05-03T06:26:22.726Z,58.80
2019-05-03T06:27:24.468Z,58.70
2019-05-03T06:28:25.057Z,58.70
2019-05-03T06:29:24.663Z,58.59
2019-05-03T06:30:24.725Z,57.75
2019-05-03T06:31:22.854Z,58.47
2019-05-03T06:32:22.661Z,58.06
2019-05-03T06:33:24.500Z,57.85
2019-05-03T06:34:22.640Z,56.28
2019-05-03T06:35:24.342Z,55.77
2019-05-03T06:36:24.306Z,56.51
2019-05-03T06:37:22.610Z,56.21
2019-05-03T06:38:24.276Z,56.79
2019-05-03T06:39:24.743Z,57.41
2019-05-03T06:40:22.573Z,56.28
2019-05-03T06:41:22.565Z,56.70
2019-05-03T06:42:22.998Z,56.21
2019-05-03T06:43:24.279Z,56.62
2019-05-03T06:44:24.798Z,56.82
2019-05-03T06:45:25.111Z,56.38
2019-05-03T06:46:23.486Z,56.49
2019-05-03T06:47:25.342Z,56.15
2019-05-03T06:48:26.986Z,56.46
2019-05-03T06:49:25.364Z,55.64
2019-05-03T06:50:27.574Z,55.54
2019-05-03T06:51:24.865Z,54.92
2019-05-03T06:52:25.482Z,55.33
2019-05-03T06:53:25.289Z,54.82
2019-05-03T06:54:26.835Z,55.23
2019-05-03T06:55:24.751Z,54.30
2019-05-03T06:56:25.035Z,55.43
2019-05-03T06:57:25.213Z,54.51
2019-05-03T06:58:31.228Z,54.51
2019-05-03T06:59:24.984Z,54.82
2019-05-03T07:00:22.350Z,54.00
2019-05-03T07:01:22.343Z,53.46
2019-05-03T07:02:22.325Z,52.46
2019-05-03T07:03:22.317Z,53.66
2019-05-03T07:04:24.414Z,53.77
2019-05-03T07:05:22.297Z,54.18
2019-05-03T07:06:33.497Z,53.56
2019-05-03T07:07:26.060Z,53.46
2019-05-03T07:08:22.255Z,52.36
2019-05-03T07:09:22.250Z,52.02
2019-05-03T07:10:22.237Z,52.02
2019-05-03T07:11:22.220Z,52.33
2019-05-03T07:12:22.222Z,51.95
2019-05-03T07:13:22.202Z,52.87
2019-05-03T07:14:22.192Z,53.38
2019-05-03T07:15:22.205Z,52.66
2019-05-03T07:16:22.177Z,52.95
2019-05-03T07:17:22.153Z,52.02
2019-05-03T07:18:22.156Z,52.54
2019-05-03T07:19:22.136Z,52.76
2019-05-03T07:20:22.121Z,52.23
2019-05-03T07:21:22.120Z,51.82
2019-05-03T07:22:22.127Z,52.12
2019-05-03T07:23:22.183Z,51.72
2019-05-03T07:24:22.075Z,51.10
2019-05-03T07:25:22.065Z,50.18
2019-05-03T07:26:22.063Z,50.26
2019-05-03T07:27:22.052Z,50.34
2019-05-03T07:28:22.035Z,50.77
2019-05-03T07:29:22.018Z,50.05
2019-05-03T07:30:22.015Z,50.77
2019-05-03T07:31:22.002Z,51.59
2019-05-03T07:32:21.990Z,51.77
2019-05-03T07:33:21.987Z,51.77
2019-05-03T07:34:21.964Z,51.79
2019-05-03T07:35:21.959Z,51.48
2019-05-03T07:36:25.077Z,50.97
2019-05-03T07:37:24.573Z,51.39
2019-05-03T07:38:21.926Z,50.97
2019-05-03T07:39:21.923Z,50.36
2019-05-03T07:40:21.897Z,50.26
2019-05-03T07:41:24.457Z,51.07
2019-05-03T07:42:22.880Z,50.67
2019-05-03T07:43:21.872Z,49.54
2019-05-03T07:44:21.857Z,49.93
2019-05-03T07:45:21.837Z,50.46
2019-05-03T07:46:21.831Z,50.67
2019-05-03T07:47:21.834Z,50.77
2019-05-03T07:48:21.809Z,49.95
2019-05-03T07:49:21.798Z,49.64
2019-05-03T07:50:21.804Z,49.21
2019-05-03T07:51:21.790Z,49.41
2019-05-03T07:52:21.763Z,49.82
2019-05-03T07:53:21.756Z,49.23
2019-05-03T07:54:21.740Z,49.41
2019-05-03T07:55:21.744Z,49.85
2019-05-03T07:56:21.720Z,49.62
2019-05-03T07:57:28.866Z,48.90
2019-05-03T07:59:06.230Z,48.18
2019-05-03T08:00:04.981Z,47.64
2019-05-03T08:01:07.081Z,48.36
2019-05-03T08:02:05.668Z,47.64
2019-05-03T08:03:05.014Z,48.26
2019-05-03T08:04:05.280Z,48.57
2019-05-03T08:05:05.102Z,48.96
2019-05-03T08:06:04.805Z,46.81
2019-05-03T08:07:04.449Z,46.91
2019-05-03T08:08:04.794Z,45.47
2019-05-03T08:09:04.843Z,45.98
2019-05-03T08:10:05.390Z,45.98
2019-05-03T08:11:05.137Z,46.30
2019-05-03T08:12:05.066Z,46.50
2019-05-03T08:13:04.667Z,47.31
2019-05-03T08:14:04.995Z,46.91
2019-05-03T08:15:05.262Z,45.78
2019-05-03T08:16:03.156Z,47.13
2019-05-03T08:17:05.001Z,46.31
2019-05-03T08:18:04.813Z,46.52
2019-05-03T08:19:04.914Z,46.83
2019-05-03T08:20:05.150Z,47.03
2019-05-03T08:21:05.157Z,47.31
2019-05-03T08:22:04.781Z,47.13
2019-05-03T08:23:05.126Z,47.03
2019-05-03T08:24:04.585Z,47.01
2019-05-03T08:25:03.070Z,46.93
2019-05-03T08:26:05.520Z,45.57
2019-05-03T08:27:05.116Z,44.84
2019-05-03T08:28:05.157Z,44.00
2019-05-03T08:29:15.321Z,43.98
2019-05-03T08:30:04.680Z,43.26
2019-05-03T08:31:04.767Z,43.06
2019-05-03T08:32:04.918Z,44.38
2019-05-03T08:33:02.997Z,44.00
2019-05-03T08:34:04.824Z,44.84
2019-05-03T08:35:04.704Z,44.86
2019-05-03T08:36:04.852Z,45.57
2019-05-03T08:37:05.006Z,45.17
2019-05-03T08:38:04.827Z,45.15
2019-05-03T08:39:05.356Z,45.04
2019-05-03T08:40:02.910Z,44.38
2019-05-03T08:41:02.889Z,42.81
2019-05-03T08:42:04.818Z,42.49
2019-05-03T08:43:05.024Z,40.32
2019-05-03T08:44:02.852Z,39.79
2019-05-03T08:45:04.555Z,39.28
2019-05-03T08:46:04.597Z,39.90
2019-05-03T08:47:02.831Z,40.63
2019-05-03T08:48:02.823Z,40.75
2019-05-03T08:49:05.023Z,40.46
2019-05-03T08:50:02.787Z,42.00
2019-05-03T08:51:04.529Z,42.50
2019-05-03T08:52:02.763Z,42.32
2019-05-03T08:53:04.924Z,42.00
2019-05-03T08:54:04.653Z,41.59
2019-05-03T08:55:02.724Z,42.50
2019-05-03T08:56:02.713Z,41.89
2019-05-03T08:57:02.711Z,42.43
2019-05-03T08:58:02.702Z,42.55
2019-05-03T08:59:04.544Z,42.44
2019-05-03T09:00:02.670Z,42.67
2019-05-03T09:01:02.652Z,42.65
2019-05-03T09:02:03.524Z,42.55
2019-05-03T09:03:05.232Z,42.83
2019-05-03T09:04:02.636Z,42.44
2019-05-03T09:05:02.616Z,42.03
2019-05-03T09:06:04.512Z,42.44
2019-05-03T09:07:02.590Z,42.44
2019-05-03T09:08:02.586Z,42.96
2019-05-03T09:09:04.554Z,41.42
2019-05-03T09:10:02.596Z,42.02
2019-05-03T09:11:02.544Z,40.91
2019-05-03T09:12:04.576Z,42.03
2019-05-03T09:13:05.564Z,42.46
2019-05-03T09:14:04.432Z,42.58
2019-05-03T09:15:02.494Z,43.10
2019-05-03T09:16:02.502Z,43.30
2019-05-03T09:17:04.774Z,44.02
2019-05-03T09:18:04.645Z,43.12
2019-05-03T09:19:02.525Z,44.23
2019-05-03T09:20:02.448Z,44.12
2019-05-03T09:21:02.432Z,43.18
2019-05-03T09:22:02.478Z,43.90
2019-05-03T09:23:02.413Z,43.37
2019-05-03T09:24:04.557Z,43.37
2019-05-03T09:25:02.388Z,43.37
2019-05-03T09:26:04.509Z,42.96
2019-05-03T09:27:02.399Z,42.85
2019-05-03T09:28:04.577Z,42.65
2019-05-03T09:29:02.355Z,42.57
2019-05-03T09:30:02.329Z,42.67
2019-05-03T09:31:04.537Z,42.36
2019-05-03T09:32:02.317Z,42.46
2019-05-03T09:33:02.295Z,42.97
2019-05-03T09:34:02.288Z,43.38
2019-05-03T09:35:02.272Z,44.23
2019-05-03T09:36:02.287Z,44.31
2019-05-03T09:37:02.270Z,42.87
2019-05-03T09:38:02.251Z,44.51
2019-05-03T09:39:02.233Z,44.02
2019-05-03T09:40:02.223Z,43.20
2019-05-03T09:41:02.218Z,43.28
2019-05-03T09:42:02.203Z,42.87
2019-05-03T09:43:04.334Z,42.44
2019-05-03T09:44:02.210Z,42.55
2019-05-03T09:45:02.162Z,42.44
2019-05-03T09:46:02.151Z,41.91
2019-05-03T09:47:02.145Z,42.02
2019-05-03T09:48:02.131Z,42.41
2019-05-03T09:49:12.595Z,41.49
2019-05-03T09:50:04.809Z,41.18
2019-05-03T09:51:02.112Z,40.05
2019-05-03T09:52:02.346Z,40.36
2019-05-03T09:53:02.099Z,40.26
2019-05-03T09:54:02.072Z,40.69
2019-05-03T09:55:02.087Z,40.08
2019-05-03T09:56:02.041Z,40.28
2019-05-03T09:57:02.032Z,41.09
2019-05-03T09:58:02.028Z,41.09
2019-05-03T09:59:02.008Z,42.14
2019-05-03T10:00:02.025Z,41.63
2019-05-03T10:01:03.828Z,40.91
2019-05-03T10:02:01.985Z,41.01
2019-05-03T10:03:01.965Z,41.11
2019-05-03T10:04:01.952Z,40.89
2019-05-03T10:05:01.965Z,41.61
2019-05-03T10:06:01.970Z,40.89
2019-05-03T10:07:01.918Z,40.08
2019-05-03T10:08:01.905Z,40.38
2019-05-03T10:09:01.898Z,40.17
2019-05-03T10:10:01.907Z,40.17
2019-05-03T10:11:01.885Z,40.05
2019-05-03T10:12:01.879Z,40.16
2019-05-03T10:13:01.865Z,40.36
2019-05-03T10:14:01.840Z,40.36
2019-05-03T10:15:01.882Z,40.44
2019-05-03T10:16:01.824Z,41.06
2019-05-03T10:17:01.822Z,39.62
2019-05-03T10:18:08.007Z,40.73
2019-05-03T10:19:02.778Z,39.30
2019-05-03T10:20:01.773Z,39.90
2019-05-03T10:21:03.088Z,37.55
2019-05-03T10:22:01.747Z,37.67
2019-05-03T10:23:01.745Z,38.18
2019-05-03T10:24:01.723Z,38.71
2019-05-03T10:25:01.741Z,38.40
2019-05-03T10:26:01.709Z,39.42
2019-05-03T10:27:01.695Z,38.50
2019-05-03T10:28:01.692Z,36.66
2019-05-03T10:29:01.667Z,36.87
2019-05-03T10:30:10.486Z,37.89
2019-05-03T10:31:07.346Z,36.46
2019-05-03T10:32:02.633Z,37.40
2019-05-03T10:33:01.624Z,39.14
2019-05-03T10:34:01.638Z,37.29
2019-05-03T10:35:01.617Z,38.20
2019-05-03T10:36:01.603Z,37.38
2019-05-03T10:37:01.581Z,36.96
2019-05-03T10:38:01.566Z,36.24
2019-05-03T10:39:01.553Z,36.34
2019-05-03T10:40:01.549Z,36.56
2019-05-03T10:41:01.547Z,36.36
2019-05-03T10:42:01.520Z,35.75
2019-05-03T10:43:01.513Z,35.95
2019-05-03T10:44:01.501Z,35.34
2019-05-03T10:45:01.509Z,36.36
2019-05-03T10:46:01.475Z,37.07
2019-05-03T10:47:01.473Z,35.83
2019-05-03T10:48:01.458Z,33.86
2019-05-03T10:49:01.441Z,33.81
2019-05-03T10:50:01.436Z,32.44
2019-05-03T10:51:01.434Z,32.53
2019-05-03T10:52:01.413Z,32.76
2019-05-03T10:53:01.400Z,33.27
2019-05-03T10:54:01.386Z,33.51
2019-05-03T10:55:01.379Z,34.44
2019-05-03T10:56:01.369Z,35.06
2019-05-03T10:57:01.364Z,34.56
2019-05-03T10:58:01.337Z,34.58
2019-05-03T10:59:01.327Z,34.98
2019-05-03T11:00:01.322Z,35.71
2019-05-03T11:01:01.309Z,36.12
2019-05-03T11:02:01.294Z,34.10
2019-05-03T11:03:01.287Z,32.70
2019-05-03T11:04:01.268Z,31.13
2019-05-03T11:05:01.262Z,31.21
2019-05-03T11:06:01.254Z,30.60
2019-05-03T11:07:01.241Z,31.01
2019-05-03T11:08:01.268Z,30.85
2019-05-03T11:09:01.218Z,32.51
2019-05-03T11:10:01.202Z,32.43
2019-05-03T11:11:01.196Z,33.07
2019-05-03T11:12:01.192Z,34.10
2019-05-03T11:13:01.181Z,34.53
2019-05-03T11:14:01.175Z,34.56
2019-05-03T11:15:01.149Z,36.21
2019-05-03T11:16:01.137Z,36.12
2019-05-03T11:17:01.131Z,36.12
2019-05-03T11:18:01.119Z,36.83
2019-05-03T11:19:01.106Z,36.73
2019-05-03T11:20:01.095Z,36.05
2019-05-03T11:21:01.078Z,34.36
2019-05-03T11:22:01.070Z,32.37
2019-05-03T11:23:01.069Z,30.60
2019-05-03T11:24:01.057Z,29.73
2019-05-03T11:25:01.046Z,28.88
2019-05-03T11:26:01.026Z,27.64
2019-05-03T11:27:01.018Z,27.01
2019-05-03T11:28:01.004Z,26.18
2019-05-03T11:29:01.005Z,26.37
2019-05-03T11:30:00.986Z,25.05
2019-05-03T11:31:02.382Z,25.90
2019-05-03T11:32:00.968Z,27.09
2019-05-03T11:33:00.953Z,27.73
2019-05-03T11:34:00.934Z,28.49
2019-05-03T11:35:00.942Z,29.93
2019-05-03T11:36:00.931Z,30.66
2019-05-03T11:37:00.901Z,31.70
2019-05-03T11:38:00.895Z,32.43
2019-05-03T11:39:00.878Z,33.07
2019-05-03T11:40:00.881Z,34.10
2019-05-03T11:41:00.869Z,34.01
2019-05-03T11:42:00.850Z,35.24
2019-05-03T11:43:00.838Z,34.44
2019-05-03T11:44:00.824Z,35.06
2019-05-03T11:45:00.816Z,35.78
2019-05-03T11:46:00.802Z,35.90
2019-05-03T11:47:00.811Z,36.61
2019-05-03T11:48:00.789Z,35.92
2019-05-03T11:49:00.772Z,36.53
2019-05-03T11:50:00.763Z,36.43
2019-05-03T11:51:00.749Z,37.46
2019-05-03T11:52:00.746Z,37.05
2019-05-03T11:53:00.739Z,38.20
2019-05-03T11:54:00.717Z,38.79
2019-05-03T11:55:00.715Z,38.59
2019-05-03T11:56:00.691Z,38.39
2019-05-03T11:57:00.689Z,38.39
2019-05-03T11:58:00.685Z,38.46
2019-05-03T11:59:00.666Z,37.92
2019-05-03T12:00:00.655Z,36.32
2019-05-03T12:01:11.835Z,35.82
2019-05-03T12:02:01.618Z,36.24
2019-05-03T12:03:00.620Z,36.46
2019-05-03T12:04:00.609Z,36.68
2019-05-03T12:05:00.600Z,37.51
2019-05-03T12:06:00.583Z,37.10
2019-05-03T12:07:00.592Z,36.60
2019-05-03T12:08:00.567Z,36.31
2019-05-03T12:09:00.543Z,37.14
2019-05-03T12:10:00.593Z,38.16
2019-05-03T12:11:01.628Z,38.78
2019-05-03T12:12:00.514Z,38.46
2019-05-03T12:13:00.503Z,38.57
2019-05-03T12:14:04.159Z,38.46
2019-05-03T12:15:00.484Z,38.37
2019-05-03T12:16:00.634Z,38.76
2019-05-03T12:17:16.581Z,38.45
2019-05-03T12:18:01.911Z,37.72
2019-05-03T12:19:13.263Z,36.88
2019-05-03T12:20:03.007Z,36.77
2019-05-03T12:21:01.758Z,36.56
2019-05-03T12:22:00.913Z,36.34
2019-05-03T12:23:01.175Z,36.55
2019-05-03T12:24:01.100Z,36.65
2019-05-03T12:25:00.991Z,36.02
2019-05-03T12:26:00.954Z,35.22
2019-05-03T12:27:00.344Z,34.29
2019-05-03T12:28:00.351Z,35.21
2019-05-03T12:29:00.327Z,34.49
2019-05-03T12:30:00.317Z,33.48
2019-05-03T12:31:00.303Z,33.90
2019-05-03T12:32:00.294Z,34.92
2019-05-03T12:33:00.281Z,33.08
2019-05-03T12:34:00.279Z,34.20
2019-05-03T12:35:00.252Z,34.31
2019-05-03T12:36:00.241Z,35.63
2019-05-03T12:37:00.231Z,35.00
2019-05-03T12:38:00.229Z,34.70
2019-05-03T12:39:00.208Z,32.97
2019-05-03T12:40:00.200Z,34.19
2019-05-03T12:41:00.193Z,34.29
2019-05-03T12:42:00.174Z,34.27
2019-05-03T12:43:00.175Z,33.46
2019-05-03T12:44:00.174Z,33.15
2019-05-03T12:45:00.144Z,33.76
2019-05-03T12:46:00.133Z,33.76
2019-05-03T12:47:02.455Z,33.56
2019-05-03T12:48:00.118Z,34.88
2019-05-03T12:49:00.099Z,34.78
2019-05-03T12:50:00.105Z,33.98
2019-05-03T12:51:00.417Z,34.58
2019-05-03T12:52:00.068Z,34.39
2019-05-03T12:53:00.054Z,34.80